createdAt,value
2022-07-30T00:01:36.117Z,1.75
2022-07-30T00:04:04.041Z,2.03
2022-07-30T00:06:31.728Z,1.52
2022-07-30T00:08:58.891Z,2.47
2022-07-30T00:11:27.992Z,1.92
2022-07-30T00:13:55.983Z,1.92
2022-07-30T00:16:23.444Z,2.20
2022-07-30T00:18:50.691Z,2.10
2022-07-30T00:21:34.679Z,2.47
2022-07-30T00:24:07.070Z,1.83
2022-07-30T00:26:34.517Z,2.05
2022-07-30T00:29:01.729Z,1.80
2022-07-30T00:31:29.044Z,1.90
2022-07-30T00:33:56.536Z,2.35
2022-07-30T00:36:23.762Z,1.70
2022-07-30T00:38:50.932Z,1.80
2022-07-30T00:41:18.111Z,1.70
2022-07-30T00:43:45.368Z,2.03
2022-07-30T00:46:14.710Z,2.25
2022-07-30T00:48:42.348Z,1.77
2022-07-30T00:51:09.711Z,2.28
2022-07-30T00:53:37.034Z,1.77
2022-07-30T00:56:05.173Z,1.90
2022-07-30T00:58:32.305Z,1.90
2022-07-30T01:00:59.609Z,1.45
2022-07-30T01:03:27.073Z,1.83
2022-07-30T01:05:54.847Z,2.22
2022-07-30T01:08:22.020Z,1.67
2022-07-30T01:10:49.276Z,1.98
2022-07-30T01:13:16.702Z,1.73
2022-07-30T01:15:43.942Z,1.80
2022-07-30T01:18:12.749Z,1.80
2022-07-30T01:21:00.747Z,1.85
2022-07-30T01:23:32.024Z,1.88
2022-07-30T01:26:03.790Z,2.08
2022-07-30T01:28:34.215Z,2.22
2022-07-30T01:31:03.010Z,2.15
2022-07-30T01:33:31.022Z,1.98
2022-07-30T01:35:59.298Z,1.83
2022-07-30T01:38:32.291Z,2.13
2022-07-30T01:41:02.497Z,1.88
2022-07-30T01:43:30.991Z,1.70
2022-07-30T01:45:58.872Z,2.10
2022-07-30T01:48:26.907Z,2.17
2022-07-30T01:50:55.661Z,1.88
2022-07-30T01:53:25.906Z,1.95
2022-07-30T01:55:55.179Z,1.63
2022-07-30T01:58:27.147Z,1.80
2022-07-30T02:00:56.113Z,1.77
2022-07-30T02:03:23.341Z,1.90
2022-07-30T02:05:54.395Z,2.08
2022-07-30T02:08:39.017Z,2.10
2022-07-30T02:11:43.776Z,1.88
2022-07-30T02:14:18.171Z,1.90
2022-07-30T02:16:50.453Z,2.05
2022-07-30T02:19:18.514Z,1.90
2022-07-30T02:21:50.451Z,2.22
2022-07-30T02:24:28.587Z,1.55
2022-07-30T02:27:02.922Z,1.90
2022-07-30T02:29:33.801Z,1.70
2022-07-30T02:32:05.786Z,1.90
2022-07-30T02:34:36.874Z,1.50
2022-07-30T02:37:05.351Z,1.63
2022-07-30T02:39:33.955Z,2.28
2022-07-30T02:42:01.331Z,1.83
2022-07-30T02:44:29.303Z,1.60
2022-07-30T02:46:58.376Z,1.88
2022-07-30T02:49:27.606Z,1.80
2022-07-30T02:51:54.962Z,1.83
2022-07-30T02:54:22.884Z,1.73
2022-07-30T02:56:51.850Z,1.67
2022-07-30T02:59:20.507Z,1.70
2022-07-30T03:01:49.082Z,1.80
2022-07-30T03:04:19.591Z,1.83
2022-07-30T03:06:46.944Z,1.73
2022-07-30T03:09:16.803Z,1.80
2022-07-30T03:11:44.574Z,1.80
2022-07-30T03:14:11.718Z,2.00
2022-07-30T03:16:41.885Z,1.83
2022-07-30T03:19:09.954Z,2.03
2022-07-30T03:21:38.094Z,1.73
2022-07-30T03:24:06.946Z,1.35
2022-07-30T03:26:35.653Z,1.80
2022-07-30T03:29:03.191Z,1.85
2022-07-30T03:31:36.072Z,1.25
2022-07-30T03:34:06.389Z,2.03
2022-07-30T03:36:35.022Z,1.88
2022-07-30T03:39:03.941Z,1.73
2022-07-30T03:41:31.647Z,1.73
2022-07-30T03:44:00.392Z,1.48
2022-07-30T03:46:28.400Z,1.60
2022-07-30T03:48:57.214Z,1.85
2022-07-30T03:51:24.831Z,1.42
2022-07-30T03:53:52.108Z,1.77
2022-07-30T03:56:19.410Z,1.50
2022-07-30T03:58:46.612Z,1.77
2022-07-30T04:01:13.736Z,1.52
2022-07-30T04:03:41.092Z,1.77
2022-07-30T04:06:08.521Z,1.55
2022-07-30T04:08:36.133Z,1.42
2022-07-30T04:11:03.988Z,1.35
2022-07-30T04:13:31.441Z,1.55
2022-07-30T04:16:41.604Z,1.92
2022-07-30T04:19:08.998Z,1.58
2022-07-30T04:21:38.219Z,1.70
2022-07-30T04:24:05.918Z,1.33
2022-07-30T04:26:35.719Z,1.38
2022-07-30T04:29:05.254Z,1.40
2022-07-30T04:31:39.811Z,1.88
2022-07-30T04:34:08.374Z,1.50
2022-07-30T04:36:39.500Z,1.45
2022-07-30T04:39:06.649Z,1.35
2022-07-30T04:41:48.458Z,1.27
2022-07-30T04:44:19.033Z,1.55
2022-07-30T04:46:47.428Z,1.50
2022-07-30T04:49:16.162Z,1.50
2022-07-30T04:51:44.791Z,1.40
2022-07-30T04:54:15.264Z,1.30
2022-07-30T04:56:50.294Z,1.52
2022-07-30T04:59:28.601Z,1.50
2022-07-30T05:01:58.424Z,1.30
2022-07-30T05:04:26.664Z,1.88
2022-07-30T05:06:54.032Z,1.58
2022-07-30T05:09:21.467Z,1.27
2022-07-30T05:11:52.969Z,1.65
2022-07-30T05:14:21.540Z,1.70
2022-07-30T05:16:49.246Z,1.70
2022-07-30T05:19:17.656Z,1.30
2022-07-30T05:21:44.880Z,1.88
2022-07-30T05:24:12.044Z,1.80
2022-07-30T05:26:39.416Z,1.40
2022-07-30T05:29:07.326Z,1.30
2022-07-30T05:31:35.461Z,1.45
2022-07-30T05:34:05.695Z,1.30
2022-07-30T05:36:33.066Z,1.40
2022-07-30T05:39:00.578Z,1.40
2022-07-30T05:41:32.636Z,1.52
2022-07-30T05:44:00.861Z,1.70
2022-07-30T05:46:28.216Z,1.10
2022-07-30T05:48:55.489Z,1.15
2022-07-30T05:51:22.717Z,1.40
2022-07-30T05:53:50.136Z,1.40
2022-07-30T05:56:17.533Z,1.67
2022-07-30T05:58:44.766Z,1.42
2022-07-30T06:01:12.183Z,1.58
2022-07-30T06:03:39.429Z,1.38
2022-07-30T06:06:07.701Z,1.52
2022-07-30T06:08:35.566Z,1.75
2022-07-30T06:11:02.829Z,1.27
2022-07-30T06:13:30.064Z,1.40
2022-07-30T06:15:58.525Z,1.52
2022-07-30T06:18:25.701Z,1.40
2022-07-30T06:20:54.363Z,1.98
2022-07-30T06:23:22.431Z,1.58
2022-07-30T06:25:50.741Z,1.52
2022-07-30T06:28:36.932Z,2.08
2022-07-30T06:31:06.383Z,1.65
2022-07-30T06:33:33.947Z,1.42
2022-07-30T06:36:01.149Z,1.50
2022-07-30T06:38:28.611Z,1.98
2022-07-30T06:41:00.541Z,1.23
2022-07-30T06:43:30.068Z,1.05
2022-07-30T06:45:57.489Z,2.17
2022-07-30T06:48:24.880Z,1.40
2022-07-30T06:50:52.093Z,1.70
2022-07-30T06:53:19.286Z,1.40
2022-07-30T06:55:46.412Z,1.73
2022-07-30T06:58:13.667Z,1.35
2022-07-30T07:00:41.131Z,1.20
2022-07-30T07:03:11.638Z,1.20
2022-07-30T07:05:39.126Z,1.30
2022-07-30T07:08:06.274Z,1.95
2022-07-30T07:10:33.690Z,1.52
2022-07-30T07:13:01.118Z,1.38
2022-07-30T07:15:36.103Z,2.17
2022-07-30T07:18:05.333Z,1.52
2022-07-30T07:20:33.696Z,1.40
2022-07-30T07:23:04.062Z,1.45
2022-07-30T07:25:33.895Z,1.52
2022-07-30T07:28:11.680Z,1.60
2022-07-30T07:30:41.661Z,0.95
2022-07-30T07:33:09.357Z,1.17
2022-07-30T07:35:40.386Z,1.40
2022-07-30T07:38:18.238Z,1.70
2022-07-30T07:40:45.904Z,1.60
2022-07-30T07:43:14.565Z,1.65
2022-07-30T07:45:42.615Z,1.67
2022-07-30T07:48:09.779Z,1.48
2022-07-30T07:50:36.942Z,1.55
2022-07-30T07:53:04.629Z,1.67
2022-07-30T07:55:33.580Z,1.75
2022-07-30T07:58:01.168Z,1.45
2022-07-30T08:00:28.894Z,1.48
2022-07-30T08:02:56.510Z,1.70
2022-07-30T08:05:24.013Z,1.55
2022-07-30T08:07:51.164Z,2.80
2022-07-30T08:10:19.101Z,1.35
2022-07-30T08:12:46.367Z,1.23
2022-07-30T08:15:13.686Z,1.30
2022-07-30T08:17:42.037Z,1.70
2022-07-30T08:20:10.153Z,1.65
2022-07-30T08:22:37.736Z,1.50
2022-07-30T08:25:06.372Z,1.98
2022-07-30T08:27:33.896Z,1.80
2022-07-30T08:30:06.454Z,1.88
2022-07-30T08:32:34.093Z,1.48
2022-07-30T08:35:01.444Z,1.85
2022-07-30T08:37:28.873Z,1.35
2022-07-30T08:39:56.153Z,1.42
2022-07-30T08:42:26.749Z,1.50
2022-07-30T08:44:56.854Z,1.90
2022-07-30T08:47:28.590Z,1.80
2022-07-30T08:50:01.443Z,1.42
2022-07-30T08:52:28.910Z,2.10
2022-07-30T08:54:56.042Z,2.65
2022-07-30T08:57:23.531Z,2.53
2022-07-30T09:00:00.119Z,1.25
2022-07-30T09:02:31.466Z,1.90
2022-07-30T09:04:58.977Z,2.75
2022-07-30T09:07:26.221Z,1.45
2022-07-30T09:09:53.369Z,1.45
2022-07-30T09:12:40.893Z,1.70
2022-07-30T09:15:20.176Z,1.85
2022-07-30T09:17:49.861Z,1.50
2022-07-30T09:20:17.638Z,1.33
2022-07-30T09:22:47.359Z,1.58
2022-07-30T09:25:14.460Z,1.73
2022-07-30T09:27:49.142Z,1.95
2022-07-30T09:30:16.990Z,1.52
2022-07-30T09:32:54.912Z,1.83
2022-07-30T09:35:25.053Z,1.40
2022-07-30T09:38:05.903Z,1.55
2022-07-30T09:40:33.822Z,1.42
2022-07-30T09:43:09.920Z,1.13
2022-07-30T09:45:56.668Z,1.27
2022-07-30T09:48:27.166Z,1.52
2022-07-30T09:50:55.370Z,1.70
2022-07-30T09:53:24.935Z,1.20
2022-07-30T09:55:52.151Z,1.33
2022-07-30T09:58:27.030Z,1.17
2022-07-30T10:01:00.834Z,1.10
2022-07-30T10:03:38.457Z,1.50
2022-07-30T10:06:11.669Z,1.10
2022-07-30T10:08:46.146Z,1.40
2022-07-30T10:11:15.744Z,1.42
2022-07-30T10:13:45.654Z,1.20
2022-07-30T10:16:13.360Z,1.20
2022-07-30T10:18:42.243Z,1.70
2022-07-30T10:21:09.377Z,1.95
2022-07-30T10:23:36.782Z,1.35
2022-07-30T10:28:40.488Z,1.13
2022-07-30T10:31:47.351Z,1.40
2022-07-30T10:33:54.970Z,1.50
2022-07-30T10:36:23.932Z,1.58
2022-07-30T10:38:52.843Z,1.63
2022-07-30T10:41:43.381Z,0.95
2022-07-30T10:44:45.834Z,1.40
2022-07-30T10:47:14.756Z,1.10
2022-07-30T10:49:43.407Z,1.30
2022-07-30T10:52:10.968Z,1.02
2022-07-30T10:54:47.253Z,1.17
2022-07-30T10:57:22.956Z,1.48
2022-07-30T11:00:00.580Z,1.00
2022-07-30T11:02:29.194Z,0.90
2022-07-30T11:05:27.116Z,1.30
2022-07-30T11:08:44.964Z,1.02
2022-07-30T11:11:20.951Z,1.05
2022-07-30T11:14:07.992Z,1.55
2022-07-30T11:16:35.221Z,1.20
2022-07-30T11:19:55.161Z,1.00
2022-07-30T11:22:26.135Z,0.80
2022-07-30T11:24:53.452Z,0.98
2022-07-30T11:27:41.348Z,1.17
2022-07-30T11:30:17.946Z,1.20
2022-07-30T11:32:52.042Z,1.13
2022-07-30T11:35:34.631Z,0.90
2022-07-30T11:38:19.554Z,0.90
2022-07-30T11:40:46.554Z,0.90
2022-07-30T11:43:35.765Z,0.90
2022-07-30T11:46:10.570Z,1.13
2022-07-30T11:48:54.547Z,1.00
2022-07-30T11:51:21.746Z,0.90
2022-07-30T11:54:10.695Z,1.17
2022-07-30T11:56:37.908Z,0.95
2022-07-30T11:59:07.215Z,0.90
2022-07-30T12:01:35.451Z,1.17
2022-07-30T12:04:04.510Z,1.10
2022-07-30T12:06:32.257Z,1.05
2022-07-30T12:08:59.654Z,1.05
2022-07-30T12:11:34.197Z,1.17
2022-07-30T12:14:02.333Z,1.10
2022-07-30T12:16:31.677Z,1.10
2022-07-30T12:19:03.954Z,0.85
2022-07-30T12:21:31.226Z,1.10
2022-07-30T12:24:01.409Z,1.23
2022-07-30T12:26:31.069Z,1.10
2022-07-30T12:28:59.997Z,0.95
2022-07-30T12:31:27.713Z,1.20
2022-07-30T12:33:58.186Z,1.30
2022-07-30T12:36:29.555Z,1.52
2022-07-30T12:38:58.055Z,1.40
2022-07-30T12:41:44.984Z,1.23
2022-07-30T12:44:38.006Z,1.10
2022-07-30T12:47:07.254Z,1.20
2022-07-30T12:49:39.209Z,1.05
2022-07-30T12:52:28.556Z,1.20
2022-07-30T12:55:08.627Z,1.63
2022-07-30T12:57:59.336Z,1.27
2022-07-30T13:00:29.106Z,1.20
2022-07-30T13:02:56.776Z,1.08
2022-07-30T13:05:49.862Z,1.35
2022-07-30T13:08:17.193Z,1.65
2022-07-30T13:11:00.543Z,1.25
2022-07-30T13:13:28.798Z,1.40
2022-07-30T13:16:05.284Z,1.90
2022-07-30T13:18:34.029Z,0.95
2022-07-30T13:21:02.694Z,1.30
2022-07-30T13:23:29.954Z,1.20
2022-07-30T13:25:57.664Z,1.40
2022-07-30T13:28:25.456Z,1.10
2022-07-30T13:30:52.600Z,2.20
2022-07-30T13:33:19.692Z,1.70
2022-07-30T13:35:46.932Z,1.13
2022-07-30T13:38:14.118Z,2.08
2022-07-30T13:40:41.468Z,1.40
2022-07-30T13:43:08.891Z,1.17
2022-07-30T13:45:36.089Z,1.10
2022-07-30T13:48:03.944Z,1.20
2022-07-30T13:50:31.120Z,1.30
2022-07-30T13:53:02.011Z,3.33
2022-07-30T13:55:30.123Z,1.33
2022-07-30T13:57:57.444Z,1.40
2022-07-30T14:00:24.775Z,1.15
2022-07-30T14:02:51.914Z,1.30
2022-07-30T14:05:18.995Z,1.40
2022-07-30T14:07:46.343Z,1.40
2022-07-30T14:10:13.487Z,1.50
2022-07-30T14:12:40.667Z,1.40
2022-07-30T14:15:09.611Z,1.50
2022-07-30T14:17:36.775Z,1.50
2022-07-30T14:20:04.637Z,1.63
2022-07-30T14:22:31.733Z,1.63
2022-07-30T14:25:00.233Z,1.33
2022-07-30T14:27:27.331Z,1.65
2022-07-30T14:29:54.389Z,1.50
2022-07-30T14:32:21.548Z,1.63
2022-07-30T14:34:50.566Z,2.05
2022-07-30T14:37:17.696Z,2.50
2022-07-30T14:39:44.822Z,2.90
2022-07-30T14:42:12.118Z,5.05
2022-07-30T14:44:39.186Z,5.43
2022-07-30T14:47:06.417Z,7.60
2022-07-30T14:49:33.988Z,9.93
2022-07-30T14:52:01.352Z,12.82
2022-07-30T14:54:28.497Z,19.15
2022-07-30T14:56:59.165Z,23.25
2022-07-30T14:59:30.314Z,18.70
2022-07-30T15:01:57.528Z,11.95
2022-07-30T15:04:24.739Z,8.18
2022-07-30T15:06:51.949Z,6.25
2022-07-30T15:09:19.877Z,7.05
2022-07-30T15:14:34.098Z,8.77
2022-07-30T15:17:04.328Z,7.05
2022-07-30T15:19:32.597Z,6.30
2022-07-30T15:22:02.225Z,7.00
2022-07-30T15:24:30.384Z,6.03
2022-07-30T15:26:57.505Z,5.85
2022-07-30T15:29:27.164Z,4.90
2022-07-30T15:31:54.441Z,5.45
2022-07-30T15:34:21.937Z,6.90
2022-07-30T15:36:49.015Z,9.48
2022-07-30T15:39:16.196Z,13.00
2022-07-30T15:41:43.425Z,17.10
2022-07-30T15:44:10.698Z,22.98
2022-07-30T15:46:37.813Z,27.38
2022-07-30T15:49:05.161Z,29.08
2022-07-30T15:51:32.632Z,34.15
2022-07-30T15:53:59.785Z,38.20
2022-07-30T15:56:28.264Z,40.55
2022-07-30T15:58:55.793Z,43.15
2022-07-30T16:01:23.042Z,45.17
2022-07-30T16:03:50.310Z,48.22
2022-07-30T16:06:17.568Z,46.72
2022-07-30T16:08:44.730Z,48.10
2022-07-30T16:11:11.965Z,45.38
2022-07-30T16:13:39.104Z,51.35
2022-07-30T16:16:06.300Z,54.00
2022-07-30T16:18:34.810Z,50.85
2022-07-30T16:21:02.039Z,49.50
2022-07-30T16:23:36.747Z,47.03
2022-07-30T16:26:04.514Z,51.95
2022-07-30T16:28:32.271Z,42.28
2022-07-30T16:30:59.429Z,36.20
2022-07-30T16:33:26.547Z,24.08
2022-07-30T16:35:53.746Z,12.55
2022-07-30T16:38:23.115Z,7.18
2022-07-30T16:40:50.394Z,4.43
2022-07-30T16:43:20.149Z,3.13
2022-07-30T16:45:48.390Z,2.50
2022-07-30T16:48:15.533Z,2.10
2022-07-30T16:50:42.703Z,2.05
2022-07-30T16:53:13.745Z,1.48
2022-07-30T16:55:42.447Z,1.60
2022-07-30T16:58:10.593Z,1.35
2022-07-30T17:00:38.430Z,1.50
2022-07-30T17:03:05.678Z,1.30
2022-07-30T17:05:32.951Z,1.27
2022-07-30T17:08:00.262Z,1.52
2022-07-30T17:10:27.896Z,1.38
2022-07-30T17:12:56.851Z,1.40
2022-07-30T17:15:32.969Z,1.40
2022-07-30T17:18:01.615Z,1.40
2022-07-30T17:20:29.604Z,2.15
2022-07-30T17:22:56.883Z,1.10
2022-07-30T17:25:27.927Z,1.15
2022-07-30T17:27:56.133Z,1.42
2022-07-30T17:30:24.295Z,1.38
2022-07-30T17:32:51.423Z,1.33
2022-07-30T17:35:19.277Z,1.30
2022-07-30T17:37:46.468Z,1.40
2022-07-30T17:40:30.516Z,1.10
2022-07-30T17:45:36.334Z,1.30
2022-07-30T17:48:05.179Z,1.35
2022-07-30T17:50:33.680Z,1.08
2022-07-30T17:53:03.646Z,1.20
2022-07-30T17:55:32.249Z,1.80
2022-07-30T17:57:59.393Z,1.98
2022-07-30T18:00:26.929Z,1.90
2022-07-30T18:02:54.054Z,1.95
2022-07-30T18:05:21.202Z,1.27
2022-07-30T18:07:48.350Z,1.45
2022-07-30T18:10:15.508Z,1.52
2022-07-30T18:12:48.683Z,1.40
2022-07-30T18:15:20.281Z,1.50
2022-07-30T18:17:47.437Z,1.70
2022-07-30T18:20:14.842Z,1.77
2022-07-30T18:22:42.119Z,1.35
2022-07-30T18:25:12.309Z,1.30
2022-07-30T18:27:47.288Z,1.40
2022-07-30T18:30:14.815Z,1.45
2022-07-30T18:32:42.054Z,1.40
2022-07-30T18:35:13.842Z,1.33
2022-07-30T18:37:42.803Z,1.63
2022-07-30T18:40:11.285Z,1.52
2022-07-30T18:42:38.536Z,1.48
2022-07-30T18:45:06.234Z,2.00
2022-07-30T18:47:33.360Z,1.77
2022-07-30T18:50:00.643Z,1.60
2022-07-30T18:52:27.807Z,2.00
2022-07-30T18:54:54.960Z,2.28
2022-07-30T18:57:22.145Z,1.83
2022-07-30T18:59:49.322Z,1.70
2022-07-30T19:02:16.463Z,2.10
2022-07-30T19:04:43.756Z,2.10
2022-07-30T19:07:10.974Z,1.85
2022-07-30T19:09:38.249Z,2.20
2022-07-30T19:12:05.771Z,2.00
2022-07-30T19:14:33.264Z,2.35
2022-07-30T19:17:00.395Z,1.83
2022-07-30T19:19:27.590Z,2.15
2022-07-30T19:21:54.740Z,1.90
2022-07-30T19:24:22.162Z,2.08
2022-07-30T19:26:50.085Z,2.10
2022-07-30T19:29:17.360Z,2.38
2022-07-30T19:31:44.577Z,2.22
2022-07-30T19:34:11.802Z,1.92
2022-07-30T19:36:39.873Z,2.20
2022-07-30T19:39:08.703Z,1.80
2022-07-30T19:41:41.424Z,2.70
2022-07-30T19:44:12.137Z,2.03
2022-07-30T19:46:41.279Z,1.83
2022-07-30T19:49:09.841Z,2.10
2022-07-30T19:52:07.282Z,1.90
2022-07-30T19:54:25.506Z,1.65
2022-07-30T19:56:53.133Z,1.75
2022-07-30T19:59:45.587Z,1.88
2022-07-30T20:02:08.393Z,2.05
2022-07-30T20:04:37.230Z,2.25
2022-07-30T20:07:04.509Z,2.13
2022-07-30T20:09:31.763Z,2.53
2022-07-30T20:12:00.152Z,1.63
2022-07-30T20:14:30.007Z,2.40
2022-07-30T20:17:01.929Z,1.70
2022-07-30T20:19:36.151Z,1.77
2022-07-30T20:22:04.298Z,1.90
2022-07-30T20:24:31.532Z,1.90
2022-07-30T20:26:59.527Z,1.85
2022-07-30T20:29:26.796Z,1.75
2022-07-30T20:31:54.925Z,2.33
2022-07-30T20:34:25.788Z,2.53
2022-07-30T20:36:53.998Z,1.83
2022-07-30T20:39:25.103Z,2.00
2022-07-30T20:42:07.921Z,2.17
2022-07-30T20:44:37.241Z,2.53
2022-07-30T20:47:09.539Z,2.03
2022-07-30T20:49:37.307Z,2.75
2022-07-30T20:52:05.911Z,2.60
2022-07-30T20:54:33.227Z,2.63
2022-07-30T20:57:00.524Z,2.30
2022-07-30T20:59:28.922Z,2.22
2022-07-30T21:01:56.440Z,2.10
2022-07-30T21:04:25.724Z,2.45
2022-07-30T21:06:53.328Z,2.55
2022-07-30T21:09:20.668Z,3.10
2022-07-30T21:11:50.716Z,5.07
2022-07-30T21:14:19.978Z,5.38
2022-07-30T21:16:47.588Z,4.97
2022-07-30T21:19:17.027Z,4.00
2022-07-30T21:21:48.158Z,3.38
2022-07-30T21:24:19.538Z,3.47
2022-07-30T21:26:51.241Z,2.92
2022-07-30T21:29:18.669Z,4.25
2022-07-30T21:31:58.471Z,3.78
2022-07-30T21:34:30.840Z,3.22
2022-07-30T21:37:02.687Z,3.15
2022-07-30T21:39:30.365Z,3.05
2022-07-30T21:41:57.590Z,4.57
2022-07-30T21:44:25.199Z,5.85
2022-07-30T21:46:52.611Z,4.88
2022-07-30T21:49:21.500Z,3.70
2022-07-30T21:51:48.829Z,5.28
2022-07-30T21:54:28.813Z,5.10
2022-07-30T21:56:58.350Z,3.85
2022-07-30T21:59:27.616Z,3.80
2022-07-30T22:01:55.713Z,4.32
2022-07-30T22:04:22.994Z,4.03
2022-07-30T22:06:51.491Z,3.20
2022-07-30T22:09:33.222Z,3.33
2022-07-30T22:12:06.349Z,3.25
2022-07-30T22:14:37.425Z,3.72
2022-07-30T22:17:04.720Z,3.28
2022-07-30T22:19:32.437Z,3.00
2022-07-30T22:22:05.240Z,3.35
2022-07-30T22:24:47.086Z,3.63
2022-07-30T22:27:14.688Z,3.70
2022-07-30T22:29:43.493Z,3.83
2022-07-30T22:32:11.931Z,3.22
2022-07-30T22:34:39.444Z,3.13
2022-07-30T22:39:54.190Z,3.50
2022-07-30T22:42:24.427Z,3.90
2022-07-30T22:44:54.752Z,3.92
2022-07-30T22:47:50.349Z,3.35
2022-07-30T22:50:11.505Z,3.95
2022-07-30T22:52:39.933Z,3.85
2022-07-30T22:55:11.938Z,4.18
2022-07-30T22:57:40.161Z,3.35
2022-07-30T23:00:11.253Z,4.18
2022-07-30T23:02:40.485Z,3.65
2022-07-30T23:05:08.920Z,3.60
2022-07-30T23:07:40.040Z,3.15
2022-07-30T23:10:18.229Z,3.75
2022-07-30T23:12:28.965Z,3.90
2022-07-30T23:12:48.417Z,4.47
2022-07-30T23:15:15.848Z,3.47
2022-07-30T23:17:43.706Z,3.97
2022-07-30T23:20:16.543Z,3.92
2022-07-30T23:22:44.054Z,3.10
2022-07-30T23:25:11.776Z,3.47
2022-07-30T23:27:40.074Z,3.63
2022-07-30T23:30:09.246Z,3.55
2022-07-30T23:32:36.700Z,3.50
2022-07-30T23:35:04.883Z,3.28
2022-07-30T23:37:37.948Z,3.20
2022-07-30T23:40:17.321Z,3.25
2022-07-30T23:42:45.134Z,4.20
2022-07-30T23:45:12.477Z,3.60
2022-07-30T23:47:54.650Z,3.58
2022-07-30T23:50:27.359Z,3.53
2022-07-30T23:52:54.582Z,3.53
2022-07-30T23:55:21.843Z,3.55
2022-07-30T23:57:49.148Z,3.10
